Time;durP1;ratioP1;P1;durP2;ratioP2;P2;SDS_P1;SDS_P2;PMS_P1;PMS_P2;Temp;Humidity;BMP_temperature;BMP_pressure;BME280_temperature;BME280_humidity;BME280_pressure;Samples;Min_cycle;Max_cycle;Signal;HPM_P1;HPM_P2
2022/07/26 00:00:18;;;;;;;2.03;1.93;;;25.10;62.00;;;;;;5050382;28;20644;-70
2022/07/26 00:02:45;;;;;;;3.30;2.20;;;25.00;62.10;;;;;;5034337;28;20294;-70
2022/07/26 00:05:10;;;;;;;3.07;2.77;;;25.00;62.20;;;;;;5050404;28;20461;-71
2022/07/26 00:07:36;;;;;;;1.90;1.80;;;24.90;62.20;;;;;;5070699;28;20448;-70
2022/07/26 00:10:04;;;;;;;2.87;1.90;;;24.90;62.00;;;;;;5070832;28;20233;-70
2022/07/26 00:12:30;;;;;;;2.63;1.97;;;24.90;62.20;;;;;;5038444;28;20228;-70
2022/07/26 00:14:56;;;;;;;2.30;2.10;;;25.00;62.10;;;;;;5032015;28;21035;-70
2022/07/26 00:17:22;;;;;;;2.47;2.27;;;25.10;61.90;;;;;;5048322;28;20458;-70
2022/07/26 00:19:48;;;;;;;3.03;2.03;;;25.10;61.70;;;;;;5033883;28;20215;-70
2022/07/26 00:24:58;;;;;;;3.40;2.50;;;25.10;61.80;;;;;;5069807;28;20218;-71
2022/07/26 00:27:24;;;;;;;4.80;2.33;;;25.00;61.60;;;;;;5052957;28;20855;-70
2022/07/26 00:29:49;;;;;;;2.80;2.10;;;25.00;61.60;;;;;;5052262;28;20276;-71
2022/07/26 00:32:15;;;;;;;2.10;1.90;;;25.00;61.60;;;;;;5050161;28;20252;-70
2022/07/26 00:34:41;;;;;;;6.07;2.40;;;25.00;62.40;;;;;;5043178;28;20268;-71
2022/07/26 00:37:07;;;;;;;2.80;2.10;;;25.00;61.60;;;;;;5051721;28;20242;-70
2022/07/26 00:39:32;;;;;;;5.67;3.10;;;25.00;61.70;;;;;;5066440;28;20569;-70
2022/07/26 00:41:58;;;;;;;2.47;2.27;;;24.90;62.20;;;;;;5069721;28;20222;-70
2022/07/26 00:44:24;;;;;;;3.37;2.30;;;24.80;62.40;;;;;;5049844;28;20203;-70
2022/07/26 00:46:50;;;;;;;2.43;2.23;;;24.80;62.20;;;;;;5051843;28;20576;-70
2022/07/26 00:49:15;;;;;;;2.73;2.53;;;24.80;62.40;;;;;;5051679;28;20758;-70
2022/07/26 00:51:41;;;;;;;2.60;2.40;;;24.80;62.20;;;;;;5035349;28;20238;-71
2022/07/26 00:54:07;;;;;;;2.63;2.00;;;24.80;62.10;;;;;;5047668;28;20287;-70
2022/07/26 00:56:33;;;;;;;2.53;2.33;;;24.80;62.40;;;;;;5051044;28;20703;-70
2022/07/26 00:59:00;;;;;;;4.10;2.33;;;24.70;62.30;;;;;;5052372;28;20223;-71
2022/07/26 01:01:26;;;;;;;2.40;2.20;;;24.70;62.50;;;;;;5032911;28;20492;-70
2022/07/26 01:03:53;;;;;;;13.33;2.50;;;24.60;62.80;;;;;;5050671;28;20449;-70
2022/07/26 01:06:19;;;;;;;2.00;1.87;;;24.50;63.10;;;;;;5032918;28;20474;-71
2022/07/26 01:08:45;;;;;;;2.40;2.20;;;24.50;63.20;;;;;;5040341;28;20454;-70
2022/07/26 01:11:11;;;;;;;3.63;2.47;;;24.40;63.30;;;;;;5047993;28;20515;-69
2022/07/26 01:13:45;;;;;;;4.70;2.27;;;24.40;63.60;;;;;;5067824;28;20227;-70
2022/07/26 01:16:11;;;;;;;2.50;2.30;;;24.30;63.90;;;;;;5049419;28;20713;-71
2022/07/26 01:18:37;;;;;;;2.37;2.20;;;24.30;63.80;;;;;;5050758;28;20461;-71
2022/07/26 01:21:04;;;;;;;4.40;2.33;;;24.20;63.70;;;;;;5051541;28;20801;-70
2022/07/26 01:23:30;;;;;;;2.30;2.10;;;24.20;63.80;;;;;;5042419;28;20237;-70
2022/07/26 01:25:56;;;;;;;2.03;1.93;;;24.20;63.70;;;;;;5050757;28;20461;-70
2022/07/26 01:28:22;;;;;;;2.53;2.33;;;24.10;63.50;;;;;;5055363;28;20226;-70
2022/07/26 01:30:48;;;;;;;2.53;2.33;;;24.10;63.80;;;;;;5041349;28;20604;-71
2022/07/26 01:33:14;;;;;;;3.97;2.43;;;24.10;63.80;;;;;;5037654;28;20231;-70
2022/07/26 01:35:39;;;;;;;2.37;2.27;;;24.00;63.80;;;;;;5050629;28;20971;-71
2022/07/26 01:38:05;;;;;;;2.20;2.10;;;24.10;63.80;;;;;;5049850;28;20226;-71
2022/07/26 01:40:31;;;;;;;2.70;2.10;;;24.10;63.70;;;;;;5050595;28;20221;-71
2022/07/26 01:42:57;;;;;;;2.47;2.10;;;24.10;63.60;;;;;;5039660;28;20226;-70
2022/07/26 01:45:22;;;;;;;5.67;2.43;;;24.10;63.40;;;;;;5033803;28;20234;-70
2022/07/26 01:47:49;;;;;;;5.17;2.70;;;24.10;64.00;;;;;;5026022;28;20309;-70
2022/07/26 01:50:16;;;;;;;2.73;2.53;;;24.00;64.00;;;;;;5033041;28;20310;-70
2022/07/26 01:52:42;;;;;;;2.57;2.20;;;23.90;64.10;;;;;;5033398;28;20487;-69
2022/07/26 01:55:08;;;;;;;3.13;2.20;;;24.00;64.10;;;;;;5051105;28;20456;-70
2022/07/26 01:57:34;;;;;;;2.90;2.57;;;24.00;64.30;;;;;;5032291;28;20577;-70
2022/07/26 01:59:59;;;;;;;2.40;2.20;;;24.00;63.80;;;;;;5029476;28;20441;-70
2022/07/26 02:02:25;;;;;;;2.40;2.20;;;23.90;63.70;;;;;;5032957;28;20233;-70
2022/07/26 02:04:57;;;;;;;2.90;2.70;;;23.90;63.80;;;;;;5050041;28;20241;-70
2022/07/26 02:07:27;;;;;;;2.63;2.10;;;23.80;63.70;;;;;;5048904;28;20690;-70
2022/07/26 02:09:52;;;;;;;2.73;2.50;;;23.80;63.70;;;;;;5068801;28;20828;-70
2022/07/26 02:12:18;;;;;;;2.23;2.03;;;23.80;63.50;;;;;;5049562;28;20523;-70
2022/07/26 02:14:44;;;;;;;3.17;1.90;;;23.80;63.30;;;;;;5068025;28;20294;-70
2022/07/26 02:17:09;;;;;;;2.60;2.03;;;23.90;63.70;;;;;;5049821;28;20245;-70
2022/07/26 02:19:35;;;;;;;3.73;2.70;;;23.90;63.30;;;;;;5050140;28;20214;-70
2022/07/26 02:22:01;;;;;;;2.13;2.03;;;23.80;63.30;;;;;;5050906;28;20222;-70
2022/07/26 02:24:30;;;;;;;3.20;2.20;;;23.90;63.30;;;;;;5047962;28;20314;-68
2022/07/26 02:26:57;;;;;;;2.57;2.13;;;23.80;63.10;;;;;;5030050;28;20215;-70
2022/07/26 02:29:23;;;;;;;3.77;2.23;;;23.80;63.10;;;;;;5067635;28;20532;-71
2022/07/26 02:31:49;;;;;;;2.00;1.90;;;23.80;63.20;;;;;;5065429;28;20445;-70
2022/07/26 02:34:15;;;;;;;2.77;2.57;;;23.80;63.30;;;;;;5039603;28;21049;-70
2022/07/26 02:36:41;;;;;;;2.37;2.17;;;23.70;63.50;;;;;;5051100;28;20469;-70
2022/07/26 02:39:07;;;;;;;2.27;2.07;;;23.70;63.60;;;;;;5056446;28;20460;-70
2022/07/26 02:41:33;;;;;;;2.20;2.00;;;23.60;63.80;;;;;;5050366;28;20298;-71
2022/07/26 02:43:59;;;;;;;2.17;2.07;;;23.60;63.90;;;;;;5068898;28;20707;-70
2022/07/26 02:46:25;;;;;;;2.20;2.00;;;23.50;63.80;;;;;;5031585;28;20227;-70
2022/07/26 02:48:50;;;;;;;4.03;2.40;;;23.50;63.80;;;;;;5031822;28;20454;-70
2022/07/26 02:51:16;;;;;;;3.13;2.20;;;23.50;64.10;;;;;;5069108;28;20253;-70
2022/07/26 02:53:42;;;;;;;2.70;2.30;;;23.50;63.90;;;;;;5036963;28;20219;-70
2022/07/26 02:56:08;;;;;;;2.73;2.50;;;23.40;63.60;;;;;;5053639;28;20542;-70
2022/07/26 02:58:35;;;;;;;2.20;2.00;;;23.50;63.70;;;;;;5037045;28;20233;-69
2022/07/26 03:01:02;;;;;;;2.50;2.17;;;23.40;63.60;;;;;;5054565;28;20953;-69
2022/07/26 03:03:27;;;;;;;2.57;2.37;;;23.40;63.70;;;;;;5052895;28;20553;-70
2022/07/26 03:05:53;;;;;;;5.83;2.50;;;23.40;63.80;;;;;;5054061;28;20536;-70
2022/07/26 03:08:19;;;;;;;2.47;2.27;;;23.40;63.90;;;;;;5042553;28;20748;-69
2022/07/26 03:10:45;;;;;;;2.87;2.57;;;23.40;64.00;;;;;;5071862;28;20215;-69
2022/07/26 03:13:11;;;;;;;4.30;2.10;;;23.30;64.00;;;;;;5036340;28;20469;-70
2022/07/26 03:15:36;;;;;;;5.43;2.57;;;23.20;64.00;;;;;;5071489;28;20245;-70
2022/07/26 03:18:03;;;;;;;2.10;1.90;;;23.20;64.00;;;;;;5048031;28;20296;-70
2022/07/26 03:20:28;;;;;;;2.47;2.20;;;23.10;64.20;;;;;;5053597;28;20230;-69
2022/07/26 03:22:54;;;;;;;4.53;2.13;;;23.00;64.30;;;;;;5045747;28;20449;-70
2022/07/26 03:25:20;;;;;;;4.63;2.40;;;22.90;64.60;;;;;;5053168;28;20265;-71
2022/07/26 03:27:45;;;;;;;2.30;2.10;;;22.90;64.50;;;;;;5047176;28;20219;-70
2022/07/26 03:30:12;;;;;;;2.17;1.97;;;22.80;64.80;;;;;;5037061;28;20227;-70
2022/07/26 03:32:38;;;;;;;2.07;1.70;;;22.80;64.60;;;;;;5052336;28;20233;-70
2022/07/26 03:35:05;;;;;;;2.03;1.87;;;22.70;64.50;;;;;;5051482;28;20441;-70
2022/07/26 03:37:30;;;;;;;2.27;2.07;;;22.70;64.90;;;;;;5034387;28;20225;-70
2022/07/26 03:39:56;;;;;;;2.40;1.93;;;22.60;64.80;;;;;;5034483;28;20968;-70
2022/07/26 03:42:22;;;;;;;1.77;1.63;;;22.50;64.80;;;;;;5033507;28;20221;-70
2022/07/26 03:44:47;;;;;;;5.97;2.37;;;22.50;65.10;;;;;;5050831;28;20279;-70
2022/07/26 03:47:13;;;;;;;2.47;1.60;;;22.40;65.10;;;;;;5050570;28;20222;-70
2022/07/26 03:49:39;;;;;;;2.10;1.90;;;22.40;65.10;;;;;;5050720;28;20812;-70
2022/07/26 03:52:05;;;;;;;7.73;1.80;;;22.30;65.30;;;;;;5027241;28;20679;-70
2022/07/26 03:54:30;;;;;;;2.60;1.60;;;22.30;65.50;;;;;;5049527;28;20312;-70
2022/07/26 03:56:56;;;;;;;3.80;1.73;;;22.30;65.50;;;;;;5032742;28;20272;-70
2022/07/26 03:59:24;;;;;;;2.40;1.73;;;22.30;65.50;;;;;;5065034;28;20227;-70
2022/07/26 04:01:50;;;;;;;1.80;1.33;;;22.20;65.50;;;;;;5067455;28;20232;-70
2022/07/26 04:04:17;;;;;;;5.13;1.80;;;22.20;65.60;;;;;;5049631;28;20535;-70
2022/07/26 04:06:44;;;;;;;1.47;1.37;;;22.20;65.70;;;;;;5068983;28;20453;-70
2022/07/26 04:09:10;;;;;;;5.30;2.63;;;22.10;65.80;;;;;;5033424;28;20468;-70
2022/07/26 04:11:36;;;;;;;4.40;1.83;;;22.10;65.90;;;;;;5050674;28;20445;-69
2022/07/26 04:14:02;;;;;;;1.60;1.50;;;22.10;65.70;;;;;;5067243;28;20523;-71
2022/07/26 04:16:28;;;;;;;1.23;1.13;;;22.10;66.00;;;;;;5049503;28;20247;-70
2022/07/26 04:18:54;;;;;;;2.40;1.67;;;22.10;66.00;;;;;;5053680;28;20223;-70
2022/07/26 04:21:19;;;;;;;3.53;2.33;;;22.00;66.00;;;;;;5050620;28;20321;-69
2022/07/26 04:23:45;;;;;;;1.63;1.40;;;22.00;66.40;;;;;;5028217;28;20897;-71
2022/07/26 04:26:13;;;;;;;1.30;1.10;;;22.00;66.40;;;;;;5044779;28;20216;-71
2022/07/26 04:28:39;;;;;;;1.60;1.50;;;21.90;66.40;;;;;;5068589;28;20242;-69
2022/07/26 04:31:05;;;;;;;2.00;1.33;;;22.00;66.40;;;;;;5068408;28;20453;-70
2022/07/26 04:33:31;;;;;;;2.17;1.20;;;21.90;65.90;;;;;;5065823;28;20530;-71
2022/07/26 04:35:58;;;;;;;1.70;1.60;;;21.90;66.50;;;;;;5046682;28;20280;-70
2022/07/26 04:38:25;;;;;;;1.47;1.37;;;21.90;66.30;;;;;;5048144;28;20465;-70
2022/07/26 04:40:50;;;;;;;3.00;1.50;;;21.80;66.50;;;;;;5042903;28;20819;-70
2022/07/26 04:43:17;;;;;;;1.87;1.30;;;21.70;66.40;;;;;;5067013;28;20452;-69
2022/07/26 04:45:46;;;;;;;2.60;1.63;;;21.80;66.40;;;;;;5050696;28;20226;-71
2022/07/26 04:48:12;;;;;;;1.07;1.07;;;21.70;66.40;;;;;;5048672;28;20898;-69
2022/07/26 04:50:38;;;;;;;1.47;1.37;;;21.70;66.70;;;;;;5029840;28;20452;-70
2022/07/26 04:53:04;;;;;;;1.43;1.30;;;21.70;66.80;;;;;;5053190;28;20468;-70
2022/07/26 04:55:30;;;;;;;2.33;1.40;;;21.70;66.80;;;;;;5050148;28;20306;-70
2022/07/26 04:57:56;;;;;;;2.40;1.77;;;21.70;67.00;;;;;;5046991;28;20218;-70
2022/07/26 05:00:23;;;;;;;1.50;1.40;;;21.60;67.20;;;;;;5066111;28;20826;-70
2022/07/26 05:02:54;;;;;;;1.93;1.83;;;21.50;67.40;;;;;;5067495;28;20590;-70
2022/07/26 05:05:21;;;;;;;1.50;1.17;;;21.40;67.70;;;;;;5066189;28;20973;-70
2022/07/26 05:07:50;;;;;;;1.63;1.50;;;21.50;68.10;;;;;;5049209;28;20438;-70
2022/07/26 05:10:17;;;;;;;2.13;1.43;;;21.40;68.10;;;;;;5040687;28;20450;-70
2022/07/26 05:12:45;;;;;;;1.30;1.20;;;21.30;68.60;;;;;;5067186;28;20469;-69
2022/07/26 05:15:11;;;;;;;1.63;1.27;;;21.40;68.60;;;;;;5065013;28;20480;-70
2022/07/26 05:17:40;;;;;;;2.17;1.33;;;21.30;69.00;;;;;;5038684;28;20437;-70
2022/07/26 05:20:08;;;;;;;2.37;1.50;;;21.20;69.00;;;;;;5086376;28;20468;-70
2022/07/26 05:22:35;;;;;;;1.20;1.17;;;21.20;69.70;;;;;;5031962;28;20442;-70
2022/07/26 05:25:00;;;;;;;2.10;1.57;;;21.20;70.00;;;;;;5064657;28;20477;-70
2022/07/26 05:27:26;;;;;;;1.90;1.50;;;21.10;70.30;;;;;;5045404;28;20550;-70
2022/07/26 05:29:53;;;;;;;2.70;1.70;;;21.10;70.40;;;;;;5023077;28;20254;-70
2022/07/26 05:32:19;;;;;;;1.60;1.50;;;21.10;70.80;;;;;;5034468;28;20312;-69
2022/07/26 05:34:44;;;;;;;3.17;1.60;;;21.00;70.90;;;;;;5068930;28;20471;-70
2022/07/26 05:37:11;;;;;;;1.40;1.30;;;21.00;71.20;;;;;;5033943;28;20235;-70
2022/07/26 05:39:37;;;;;;;2.30;1.37;;;21.10;71.00;;;;;;5043206;28;20211;-69
2022/07/26 05:42:02;;;;;;;1.57;1.47;;;21.20;71.00;;;;;;5049687;28;21053;-69
2022/07/26 05:44:28;;;;;;;3.50;1.73;;;21.10;71.40;;;;;;5040877;28;20226;-69
2022/07/26 05:46:54;;;;;;;1.40;1.30;;;21.10;71.10;;;;;;5065587;28;20290;-70
2022/07/26 05:49:19;;;;;;;1.70;1.37;;;21.10;71.70;;;;;;5059679;28;20714;-69
2022/07/26 05:51:45;;;;;;;2.30;1.40;;;21.00;71.70;;;;;;5031558;28;20243;-70
2022/07/26 05:54:11;;;;;;;1.70;1.47;;;21.00;71.70;;;;;;5048531;28;20294;-70
2022/07/26 05:56:37;;;;;;;2.10;1.53;;;21.00;72.30;;;;;;5043743;28;20271;-69
2022/07/26 05:59:02;;;;;;;2.10;1.60;;;21.00;72.00;;;;;;5050720;28;20238;-69
2022/07/26 06:01:31;;;;;;;2.43;1.93;;;21.00;72.70;;;;;;5034346;28;20223;-70
2022/07/26 06:03:58;;;;;;;3.10;1.40;;;20.90;72.90;;;;;;5067972;28;20223;-70
2022/07/26 06:06:24;;;;;;;2.90;1.50;;;21.00;72.80;;;;;;5050614;28;20484;-70
2022/07/26 06:08:49;;;;;;;8.27;1.87;;;21.00;73.20;;;;;;5052396;28;20461;-70
2022/07/26 06:11:15;;;;;;;2.03;1.80;;;21.00;73.30;;;;;;5050504;28;20503;-70
2022/07/26 06:13:41;;;;;;;4.50;2.00;;;20.90;73.30;;;;;;5068277;28;20635;-70
2022/07/26 06:16:07;;;;;;;5.60;1.93;;;21.00;73.40;;;;;;5050739;28;20268;-70
2022/07/26 06:18:33;;;;;;;3.93;2.00;;;21.00;73.70;;;;;;5053653;28;20309;-70
2022/07/26 06:20:58;;;;;;;1.60;1.40;;;21.10;73.50;;;;;;5038545;28;20302;-70
2022/07/26 06:23:24;;;;;;;1.40;1.20;;;21.00;73.90;;;;;;5037561;28;20602;-70
2022/07/26 06:25:50;;;;;;;1.70;1.60;;;21.10;73.80;;;;;;5026343;28;20223;-70
2022/07/26 06:28:16;;;;;;;2.20;1.87;;;21.10;74.20;;;;;;5052722;28;20255;-69
2022/07/26 06:30:43;;;;;;;1.90;1.70;;;21.10;74.20;;;;;;5057646;28;20229;-70
2022/07/26 06:33:09;;;;;;;1.63;1.53;;;21.10;74.60;;;;;;5052868;28;20310;-70
2022/07/26 06:35:37;;;;;;;2.20;1.77;;;21.10;74.90;;;;;;5036315;28;20461;-70
2022/07/26 06:38:04;;;;;;;1.90;1.80;;;21.20;74.60;;;;;;5054500;28;20536;-70
2022/07/26 06:40:30;;;;;;;2.20;1.80;;;21.20;75.00;;;;;;5046646;28;20541;-70
2022/07/26 06:42:56;;;;;;;2.47;1.67;;;21.20;75.10;;;;;;5052534;28;21012;-69
2022/07/26 06:45:21;;;;;;;1.70;1.60;;;21.20;75.10;;;;;;5052697;28;20683;-70
2022/07/26 06:47:47;;;;;;;1.70;1.60;;;21.30;75.10;;;;;;5038361;28;20229;-70
2022/07/26 06:50:13;;;;;;;2.00;1.87;;;21.30;75.20;;;;;;5024397;28;20716;-70
2022/07/26 06:52:39;;;;;;;1.90;1.80;;;21.30;75.60;;;;;;5033351;28;20223;-70
2022/07/26 06:55:05;;;;;;;2.70;2.50;;;21.40;75.50;;;;;;5071971;28;20219;-70
2022/07/26 06:57:31;;;;;;;2.50;1.80;;;21.40;75.50;;;;;;5072117;28;20203;-70
2022/07/26 06:59:57;;;;;;;2.20;1.70;;;21.40;75.50;;;;;;5054399;28;20829;-70
2022/07/26 07:02:23;;;;;;;1.90;1.80;;;21.50;75.50;;;;;;5053519;28;20238;-70
2022/07/26 07:04:49;;;;;;;5.57;1.80;;;21.60;75.60;;;;;;5062228;28;20254;-70
2022/07/26 07:07:14;;;;;;;7.97;2.20;;;21.70;75.20;;;;;;5050572;28;20974;-70
2022/07/26 07:09:40;;;;;;;1.97;1.87;;;21.70;75.20;;;;;;5054408;28;20572;-69
2022/07/26 07:12:06;;;;;;;1.80;1.70;;;21.80;75.70;;;;;;5054124;28;20211;-70
2022/07/26 07:14:32;;;;;;;1.70;1.60;;;21.80;75.00;;;;;;5051818;28;20227;-70
2022/07/26 07:16:58;;;;;;;1.80;1.67;;;21.90;74.30;;;;;;5056299;28;20461;-69
2022/07/26 07:19:24;;;;;;;2.00;1.80;;;22.00;73.90;;;;;;5071363;28;20453;-70
2022/07/26 07:21:50;;;;;;;2.17;1.97;;;22.00;73.90;;;;;;5053983;28;20276;-70
2022/07/26 07:24:17;;;;;;;2.37;2.00;;;22.10;74.10;;;;;;5064048;28;20542;-70
2022/07/26 07:26:42;;;;;;;1.70;1.60;;;22.10;73.50;;;;;;5037658;28;20524;-70
2022/07/26 07:29:11;;;;;;;2.27;2.07;;;22.20;73.20;;;;;;5053601;28;21072;-70
2022/07/26 07:31:37;;;;;;;1.77;1.67;;;22.30;73.10;;;;;;5071316;28;20214;-70
2022/07/26 07:34:04;;;;;;;1.47;1.33;;;22.40;73.30;;;;;;5082949;28;20458;-70
2022/07/26 07:36:29;;;;;;;4.17;1.77;;;22.40;73.40;;;;;;5053096;28;20433;-71
2022/07/26 07:38:55;;;;;;;2.03;1.90;;;22.50;73.00;;;;;;5036253;28;20522;-70
2022/07/26 07:41:21;;;;;;;2.20;1.80;;;22.50;72.70;;;;;;5071182;28;20223;-70
2022/07/26 07:43:46;;;;;;;2.10;1.90;;;22.60;72.70;;;;;;5053207;28;20219;-69
2022/07/26 07:46:12;;;;;;;5.50;2.33;;;22.60;73.00;;;;;;5051745;28;20218;-70
2022/07/26 07:48:39;;;;;;;2.43;1.70;;;22.70;72.30;;;;;;5053086;28;20215;-70
2022/07/26 07:51:06;;;;;;;1.73;1.63;;;22.70;71.80;;;;;;5054254;28;20265;-70
2022/07/26 07:53:32;;;;;;;2.73;1.90;;;22.80;71.70;;;;;;5036116;28;20461;-69
2022/07/26 07:55:58;;;;;;;1.80;1.70;;;22.90;71.90;;;;;;5036071;28;20553;-70
2022/07/26 07:58:23;;;;;;;2.17;2.03;;;22.90;72.90;;;;;;5052773;28;20222;-70
2022/07/26 08:00:49;;;;;;;2.43;1.90;;;23.00;72.50;;;;;;5036459;28;20245;-70
2022/07/26 08:03:15;;;;;;;1.50;1.40;;;23.10;73.20;;;;;;5027727;28;20230;-70
2022/07/26 08:05:41;;;;;;;6.17;1.80;;;23.10;71.50;;;;;;5041815;28;20302;-70
2022/07/26 08:08:07;;;;;;;1.63;1.27;;;23.10;71.30;;;;;;5049015;28;20544;-70
2022/07/26 08:10:32;;;;;;;1.93;1.80;;;23.20;71.10;;;;;;5053097;28;20206;-70
2022/07/26 08:12:58;;;;;;;3.50;1.70;;;23.30;71.40;;;;;;5052272;28;20309;-71
2022/07/26 08:15:25;;;;;;;2.30;2.20;;;23.40;71.90;;;;;;5034746;28;20278;-70
2022/07/26 08:17:51;;;;;;;4.43;1.90;;;23.50;71.50;;;;;;5052844;28;20238;-70
2022/07/26 08:20:17;;;;;;;2.40;1.80;;;23.50;71.60;;;;;;5052853;28;20487;-70
2022/07/26 08:22:42;;;;;;;2.13;2.00;;;23.60;72.00;;;;;;5036418;28;20297;-70
2022/07/26 08:25:09;;;;;;;1.70;1.60;;;23.70;71.80;;;;;;5033617;28;20573;-70
2022/07/26 08:27:34;;;;;;;2.30;1.90;;;23.80;71.40;;;;;;5039327;28;20235;-70
2022/07/26 08:30:00;;;;;;;1.80;1.57;;;23.90;71.70;;;;;;5051235;28;20965;-70
2022/07/26 08:32:26;;;;;;;2.80;1.93;;;24.00;71.30;;;;;;5051297;28;20306;-70
2022/07/26 08:34:52;;;;;;;4.40;1.80;;;24.10;70.20;;;;;;5035730;28;20336;-70
2022/07/26 08:37:17;;;;;;;3.00;1.30;;;24.10;69.60;;;;;;5051201;28;20852;-70
2022/07/26 08:39:45;;;;;;;2.37;1.63;;;24.20;68.50;;;;;;5051630;28;20217;-70
2022/07/26 08:42:13;;;;;;;2.30;2.10;;;24.30;68.20;;;;;;5049763;28;20227;-70
2022/07/26 08:44:44;;;;;;;1.97;1.87;;;24.20;67.70;;;;;;5036205;28;20500;-70
2022/07/26 08:47:15;;;;;;;1.60;1.50;;;24.30;68.50;;;;;;5053059;28;21057;-70
2022/07/26 08:49:41;;;;;;;1.70;1.60;;;24.30;67.90;;;;;;5052553;28;20452;-70
2022/07/26 08:52:09;;;;;;;2.10;1.60;;;24.40;67.00;;;;;;5035513;28;20449;-71
2022/07/26 08:54:35;;;;;;;1.93;1.60;;;24.50;67.00;;;;;;5052059;28;20464;-70
2022/07/26 08:57:01;;;;;;;1.40;1.30;;;24.40;67.30;;;;;;5051488;28;20802;-70
2022/07/26 08:59:27;;;;;;;1.60;1.50;;;24.60;67.90;;;;;;5051194;28;20461;-70
2022/07/26 09:02:05;;;;;;;5.17;1.90;;;24.70;67.90;;;;;;5048319;28;20230;-70
2022/07/26 09:04:40;;;;;;;2.20;2.10;;;24.80;67.00;;;;;;5050473;28;20218;-69
2022/07/26 09:07:09;;;;;;;2.23;2.03;;;24.80;66.80;;;;;;5051502;28;20460;-70
2022/07/26 09:09:55;;;;;;;2.07;1.97;;;24.90;67.10;;;;;;5050618;28;20457;-70
2022/07/26 09:12:23;;;;;;;1.77;1.67;;;24.90;66.80;;;;;;5048893;28;20452;-70
2022/07/26 09:14:49;;;;;;;5.73;1.73;;;25.00;66.60;;;;;;5034629;28;20456;-70
2022/07/26 09:17:17;;;;;;;3.40;1.80;;;25.10;66.30;;;;;;5031385;28;20468;-71
2022/07/26 09:19:44;;;;;;;1.80;1.70;;;25.20;66.00;;;;;;5046867;28;20472;-71
2022/07/26 09:22:13;;;;;;;1.93;1.70;;;25.20;65.80;;;;;;5029649;28;20885;-70
2022/07/26 09:24:46;;;;;;;1.60;1.50;;;25.20;64.90;;;;;;5062849;28;20449;-70
2022/07/26 09:27:15;;;;;;;2.00;1.40;;;25.30;65.20;;;;;;5031135;28;20457;-71
2022/07/26 09:29:53;;;;;;;1.70;1.60;;;25.30;64.90;;;;;;5044320;28;20439;-69
2022/07/26 09:32:19;;;;;;;1.40;1.30;;;25.40;64.80;;;;;;5045405;28;20456;-70
2022/07/26 09:34:48;;;;;;;9.27;2.00;;;25.30;65.00;;;;;;5061945;28;20473;-70
2022/07/26 09:37:15;;;;;;;3.00;1.97;;;25.40;64.80;;;;;;5047283;28;20532;-70
2022/07/26 09:39:54;;;;;;;6.37;1.70;;;25.40;64.50;;;;;;5069447;28;20949;-69
2022/07/26 09:42:22;;;;;;;2.53;1.97;;;25.40;64.30;;;;;;5048029;28;21015;-70
2022/07/26 09:44:48;;;;;;;2.00;1.83;;;25.40;64.30;;;;;;5048938;28;20456;-69
2022/07/26 09:47:14;;;;;;;2.00;1.80;;;25.40;64.50;;;;;;5042763;28;20514;-70
2022/07/26 09:49:41;;;;;;;3.87;1.60;;;25.50;64.40;;;;;;5025427;28;20226;-69
2022/07/26 09:52:26;;;;;;;2.10;1.70;;;25.50;64.90;;;;;;5054196;28;20536;-70
2022/07/26 09:54:52;;;;;;;2.47;1.80;;;25.50;64.30;;;;;;5038999;28;20458;-71
2022/07/26 09:57:19;;;;;;;2.00;1.90;;;25.70;64.30;;;;;;5051712;28;20460;-70
2022/07/26 09:59:46;;;;;;;2.60;2.13;;;25.80;64.40;;;;;;5054204;28;20242;-70
2022/07/26 10:02:13;;;;;;;1.90;1.80;;;25.90;63.00;;;;;;5035364;28;20441;-70
2022/07/26 10:04:42;;;;;;;1.70;1.60;;;26.00;62.60;;;;;;5019058;28;20439;-70
2022/07/26 10:07:09;;;;;;;2.03;1.90;;;26.00;62.70;;;;;;5080702;28;20452;-70
2022/07/26 10:09:56;;;;;;;1.50;1.40;;;26.20;63.20;;;;;;5054482;28;20437;-70
2022/07/26 10:12:27;;;;;;;3.33;1.80;;;26.40;62.30;;;;;;5082658;28;20452;-70
2022/07/26 10:14:54;;;;;;;1.67;1.57;;;26.30;60.50;;;;;;5054128;28;20500;-71
2022/07/26 10:17:28;;;;;;;1.70;1.60;;;26.30;60.40;;;;;;5047960;28;20551;-70
2022/07/26 10:20:02;;;;;;;2.10;1.57;;;26.30;60.70;;;;;;5037397;28;20450;-71
2022/07/26 10:22:29;;;;;;;2.00;1.70;;;26.40;61.40;;;;;;5049203;28;20473;-70
2022/07/26 10:24:57;;;;;;;2.33;1.50;;;26.50;61.00;;;;;;5070241;28;20441;-70
2022/07/26 10:27:41;;;;;;;2.70;1.67;;;26.60;60.60;;;;;;5058899;28;20454;-70
2022/07/26 10:30:21;;;;;;;2.70;1.90;;;26.70;60.30;;;;;;5058675;28;20450;-71
2022/07/26 10:32:59;;;;;;;3.07;1.67;;;26.80;60.20;;;;;;5070750;28;20506;-71
2022/07/26 10:35:43;;;;;;;1.97;1.87;;;26.70;60.50;;;;;;5034628;28;20537;-70
2022/07/26 10:38:24;;;;;;;1.70;1.60;;;26.80;60.50;;;;;;5038573;28;20884;-70
2022/07/26 10:41:07;;;;;;;2.37;1.90;;;26.70;59.60;;;;;;5047372;28;20486;-70
2022/07/26 10:43:33;;;;;;;1.73;1.63;;;26.70;59.50;;;;;;5064290;28;20474;-69
2022/07/26 10:46:14;;;;;;;1.80;1.70;;;26.90;59.70;;;;;;5042471;28;20471;-70
2022/07/26 10:49:03;;;;;;;3.63;1.90;;;27.00;59.90;;;;;;5052752;28;20689;-69
2022/07/26 10:51:38;;;;;;;2.00;1.90;;;27.10;60.00;;;;;;5071354;28;20453;-70
2022/07/26 10:54:06;;;;;;;2.40;1.60;;;27.30;59.40;;;;;;5036010;28;20477;-70
2022/07/26 10:56:32;;;;;;;2.23;2.03;;;27.30;59.30;;;;;;5036302;28;20443;-69
2022/07/26 10:58:58;;;;;;;1.80;1.70;;;27.20;59.60;;;;;;5033442;28;20859;-70
2022/07/26 11:01:57;;;;;;;1.30;1.30;;;27.30;59.70;;;;;;5049104;28;20250;-70
2022/07/26 11:04:24;;;;;;;2.00;1.80;;;27.40;59.40;;;;;;4996481;28;20227;-70
2022/07/26 11:06:50;;;;;;;2.03;1.90;;;27.50;59.30;;;;;;5069918;28;20711;-69
2022/07/26 11:09:18;;;;;;;1.93;1.57;;;27.60;59.20;;;;;;5051106;28;20567;-69
2022/07/26 11:11:45;;;;;;;2.55;1.90;;;27.60;59.40;;;;;;5035879;28;20226;-68
2022/07/26 11:14:13;;;;;;;1.50;1.40;;;27.70;58.70;;;;;;5033467;28;20222;-71
2022/07/26 11:16:41;;;;;;;1.33;1.33;;;27.70;58.90;;;;;;5049494;28;20224;-69
2022/07/26 11:19:18;;;;;;;1.60;1.50;;;27.80;58.30;;;;;;5050267;28;20234;-69
2022/07/26 11:21:46;;;;;;;1.60;1.50;;;27.70;58.10;;;;;;5061869;28;20226;-69
2022/07/26 11:24:12;;;;;;;1.80;1.70;;;27.90;58.40;;;;;;5049025;28;20582;-69
2022/07/26 11:26:42;;;;;;;1.77;1.67;;;28.10;58.40;;;;;;5070600;28;20230;-70
2022/07/26 11:29:08;;;;;;;3.03;1.85;;;28.30;57.90;;;;;;5044264;28;20223;-70
2022/07/26 11:31:43;;;;;;;1.73;1.63;;;28.30;57.90;;;;;;5068359;28;20705;-70
2022/07/26 11:34:16;;;;;;;2.00;1.90;;;28.40;57.70;;;;;;5047218;28;20341;-70
2022/07/26 11:36:44;;;;;;;1.42;1.33;;;28.30;57.60;;;;;;5066792;28;20231;-70
2022/07/26 11:39:24;;;;;;;1.85;1.75;;;28.20;57.50;;;;;;5047764;28;20233;-70
2022/07/26 11:41:55;;;;;;;2.00;1.90;;;28.10;57.10;;;;;;5063264;28;20250;-69
2022/07/26 11:44:22;;;;;;;1.52;1.35;;;28.30;57.30;;;;;;5044849;28;20279;-69
2022/07/26 11:46:49;;;;;;;1.80;1.70;;;28.50;57.10;;;;;;5041031;28;20225;-70
2022/07/26 11:49:16;;;;;;;1.55;1.45;;;28.60;56.90;;;;;;5041710;28;20672;-69
2022/07/26 11:51:52;;;;;;;1.77;1.67;;;28.80;57.00;;;;;;5051747;28;20285;-70
2022/07/26 11:54:19;;;;;;;2.00;1.90;;;28.90;56.40;;;;;;5066400;28;20236;-69
2022/07/26 11:56:56;;;;;;;1.42;1.33;;;28.90;56.70;;;;;;5050513;28;20224;-70
2022/07/26 11:59:30;;;;;;;1.75;1.65;;;28.80;56.30;;;;;;5068742;28;20387;-70
2022/07/26 12:01:56;;;;;;;1.70;1.60;;;29.00;56.30;;;;;;5033331;28;20726;-70
2022/07/26 12:04:28;;;;;;;1.67;1.58;;;29.00;56.50;;;;;;5031725;28;20219;-70
2022/07/26 12:06:55;;;;;;;2.10;1.90;;;29.00;56.40;;;;;;5052854;28;20226;-69
2022/07/26 12:09:38;;;;;;;2.00;1.85;;;28.90;56.30;;;;;;5050060;28;20239;-69
2022/07/26 12:12:09;;;;;;;1.98;1.88;;;29.10;56.50;;;;;;5048694;28;20303;-70
2022/07/26 12:14:39;;;;;;;2.20;1.83;;;28.90;56.10;;;;;;5049869;28;20678;-70
2022/07/26 12:17:16;;;;;;;2.05;1.92;;;29.00;56.20;;;;;;5066276;28;20576;-70
2022/07/26 12:19:43;;;;;;;2.67;1.90;;;29.20;55.80;;;;;;5050994;28;20256;-69
2022/07/26 12:22:14;;;;;;;2.20;2.00;;;29.40;56.00;;;;;;5066736;28;20224;-70
2022/07/26 12:24:43;;;;;;;2.00;1.90;;;29.30;55.90;;;;;;5026785;28;20762;-70
2022/07/26 12:27:18;;;;;;;1.80;1.70;;;29.20;56.00;;;;;;5070397;28;20654;-70
2022/07/26 12:29:50;;;;;;;1.40;1.30;;;29.20;56.20;;;;;;5034585;28;20669;-70
2022/07/26 12:32:43;;;;;;;2.70;2.60;;;29.40;56.10;;;;;;5022903;28;20287;-69
2022/07/26 12:35:13;;;;;;;2.05;1.67;;;29.40;55.80;;;;;;5046089;28;20263;-70
2022/07/26 12:37:45;;;;;;;1.80;1.60;;;29.40;55.90;;;;;;5050257;28;20714;-70
2022/07/26 12:40:14;;;;;;;1.70;1.60;;;29.60;55.50;;;;;;5047676;28;20229;-69
2022/07/26 12:42:49;;;;;;;2.38;2.28;;;29.70;55.80;;;;;;5049593;28;20254;-69
2022/07/26 12:45:17;;;;;;;1.85;1.75;;;29.80;55.90;;;;;;5064244;28;20226;-70
2022/07/26 12:47:46;;;;;;;2.17;1.98;;;29.70;55.50;;;;;;5051212;28;20236;-71
2022/07/26 12:50:14;;;;;;;2.00;1.90;;;29.80;55.80;;;;;;5066404;28;20225;-70
2022/07/26 12:52:40;;;;;;;1.73;1.63;;;29.80;55.50;;;;;;5057709;28;20218;-70